Time;durP1;ratioP1;P1;durP2;ratioP2;P2;SDS_P1;SDS_P2;PMS_P1;PMS_P2;Temp;Humidity;BMP_temperature;BMP_pressure;BME280_temperature;BME280_humidity;BME280_pressure;Samples;Min_cycle;Max_cycle;Signal;HPM_P1;HPM_P2
2023/01/27 00:01:02;;;;;;;10.38;6.57;;;;;;;;;;5038865;28;20052;-87
2023/01/27 00:03:28;;;;;;;11.35;6.03;;;;;;;;;;5039308;28;20029;-88
2023/01/27 00:05:53;;;;;;;10.07;5.93;;;;;;;;;;5037737;28;20083;-86
2023/01/27 00:08:19;;;;;;;8.82;6.03;;;;;;;;;;5037463;28;20028;-87
2023/01/27 00:10:45;;;;;;;11.95;6.18;;;;;;;;;;5040706;28;20034;-86
2023/01/27 00:13:32;;;;;;;17.20;6.78;;;;;;;;;;5030835;28;20028;-85
2023/01/27 00:15:57;;;;;;;9.65;6.45;;;;;;;;;;5036258;28;20392;-87
2023/01/27 00:18:23;;;;;;;15.70;7.70;;;;;;;;;;5017438;28;20936;-84
2023/01/27 00:26:18;;;;;;;17.30;7.22;;;;;;;;;;5041129;28;20039;-86
2023/01/27 00:28:45;;;;;;;11.52;7.13;;;;;;;;;;5038608;28;20051;-86
2023/01/27 00:34:18;;;;;;;15.90;6.85;;;;;;;;;;5045046;28;20558;-84
2023/01/27 00:36:43;;;;;;;9.95;5.60;;;;;;;;;;5039385;28;20037;-85
2023/01/27 00:39:11;;;;;;;9.48;5.57;;;;;;;;;;5039475;28;20029;-85
2023/01/27 00:41:37;;;;;;;9.73;5.18;;;;;;;;;;5042829;28;20040;-85
2023/01/27 00:44:04;;;;;;;18.00;5.22;;;;;;;;;;5048246;28;20053;-84
2023/01/27 00:46:30;;;;;;;8.27;4.70;;;;;;;;;;5048565;28;20016;-85
2023/01/27 00:48:56;;;;;;;14.23;5.45;;;;;;;;;;5031659;28;20025;-86
2023/01/27 00:51:22;;;;;;;13.57;6.13;;;;;;;;;;5062943;28;20029;-85
2023/01/27 00:53:48;;;;;;;12.25;6.68;;;;;;;;;;5050609;28;20025;-85
2023/01/27 00:56:13;;;;;;;20.75;7.40;;;;;;;;;;5026704;28;20093;-85
2023/01/27 00:58:39;;;;;;;8.82;5.90;;;;;;;;;;5044114;28;20118;-86
2023/01/27 01:01:09;;;;;;;11.30;5.82;;;;;;;;;;5030542;28;20056;-87
2023/01/27 01:03:35;;;;;;;13.65;6.13;;;;;;;;;;5048158;28;20035;-86
2023/01/27 01:06:04;;;;;;;9.77;6.60;;;;;;;;;;5045275;28;20059;-85
2023/01/27 01:08:31;;;;;;;18.88;7.45;;;;;;;;;;5032813;28;20029;-87
2023/01/27 01:10:56;;;;;;;7.22;5.03;;;;;;;;;;5025752;28;20025;-87
2023/01/27 01:13:22;;;;;;;19.10;7.00;;;;;;;;;;5024895;28;20816;-88
2023/01/27 01:15:47;;;;;;;13.15;6.82;;;;;;;;;;5027512;28;20041;-86
2023/01/27 01:18:13;;;;;;;14.18;7.65;;;;;;;;;;5034831;28;20039;-85
2023/01/27 01:20:42;;;;;;;12.68;7.15;;;;;;;;;;5051765;28;20055;-86
2023/01/27 01:23:09;;;;;;;12.70;6.55;;;;;;;;;;5054519;28;20028;-86
2023/01/27 01:25:35;;;;;;;13.07;7.10;;;;;;;;;;5053991;28;20024;-88
2023/01/27 01:28:01;;;;;;;13.38;6.60;;;;;;;;;;5056956;28;20043;-87
2023/01/27 01:30:27;;;;;;;12.60;5.45;;;;;;;;;;5059337;28;20020;-87
2023/01/27 01:32:53;;;;;;;12.75;7.53;;;;;;;;;;5036370;28;20025;-87
2023/01/27 01:35:19;;;;;;;14.60;7.50;;;;;;;;;;5031574;28;20033;-88
2023/01/27 01:37:45;;;;;;;10.52;5.55;;;;;;;;;;5060282;28;20012;-87
2023/01/27 01:40:11;;;;;;;15.68;6.40;;;;;;;;;;5088334;28;20048;-85
2023/01/27 01:42:49;;;;;;;12.63;6.68;;;;;;;;;;5082381;28;20055;-86
2023/01/27 01:45:30;;;;;;;10.75;5.95;;;;;;;;;;5068502;28;20032;-87
2023/01/27 01:47:57;;;;;;;7.95;4.30;;;;;;;;;;5060626;28;20017;-87
2023/01/27 01:50:22;;;;;;;8.25;4.72;;;;;;;;;;5050444;28;20104;-88
2023/01/27 01:52:48;;;;;;;6.85;4.40;;;;;;;;;;5027368;28;20127;-87
2023/01/27 01:55:13;;;;;;;11.23;4.75;;;;;;;;;;5037269;28;20024;-87
2023/01/27 01:57:41;;;;;;;9.50;4.93;;;;;;;;;;5031034;28;20029;-86
2023/01/27 02:00:09;;;;;;;7.43;4.50;;;;;;;;;;5025765;28;20045;-88
2023/01/27 02:02:35;;;;;;;10.07;5.05;;;;;;;;;;5037975;28;20024;-86
2023/01/27 02:05:07;;;;;;;10.52;4.95;;;;;;;;;;5050951;28;20024;-88
2023/01/27 02:07:58;;;;;;;10.07;5.25;;;;;;;;;;5048317;28;20018;-86
2023/01/27 02:10:24;;;;;;;14.85;5.47;;;;;;;;;;5031418;28;20041;-86
2023/01/27 02:12:49;;;;;;;9.75;5.90;;;;;;;;;;5050323;28;20065;-88
2023/01/27 02:15:16;;;;;;;8.50;5.63;;;;;;;;;;5054829;28;20017;-87
2023/01/27 02:17:41;;;;;;;13.85;6.40;;;;;;;;;;5048087;28;20040;-86
2023/01/27 02:20:22;;;;;;;12.85;6.43;;;;;;;;;;5044623;28;20025;-87
2023/01/27 02:22:58;;;;;;;11.48;5.72;;;;;;;;;;5038642;28;20098;-86
2023/01/27 02:25:33;;;;;;;10.80;5.65;;;;;;;;;;5029168;28;20018;-87
2023/01/27 02:27:58;;;;;;;9.90;6.50;;;;;;;;;;5025726;28;20034;-88
2023/01/27 02:30:24;;;;;;;10.90;6.45;;;;;;;;;;5052874;28;20024;-86
2023/01/27 02:32:49;;;;;;;10.82;5.68;;;;;;;;;;5037200;28;20086;-87
2023/01/27 02:35:33;;;;;;;12.35;6.45;;;;;;;;;;5056679;28;20056;-87
2023/01/27 02:37:59;;;;;;;7.85;4.43;;;;;;;;;;5039797;28;20052;-86
2023/01/27 02:40:25;;;;;;;14.38;7.72;;;;;;;;;;5029185;28;20021;-87
2023/01/27 02:42:55;;;;;;;8.70;6.03;;;;;;;;;;5057999;28;20024;-88
2023/01/27 02:45:20;;;;;;;11.50;6.28;;;;;;;;;;5036623;28;20029;-85
2023/01/27 02:47:46;;;;;;;13.30;8.23;;;;;;;;;;5049279;28;20086;-86
2023/01/27 02:50:11;;;;;;;10.55;6.30;;;;;;;;;;5045655;28;20029;-87
2023/01/27 02:52:37;;;;;;;18.20;6.05;;;;;;;;;;5028241;28;20025;-88
2023/01/27 02:55:02;;;;;;;11.85;6.07;;;;;;;;;;5028643;28;20033;-86
2023/01/27 02:57:28;;;;;;;11.68;5.35;;;;;;;;;;5051651;28;20028;-85
2023/01/27 02:59:53;;;;;;;13.07;6.43;;;;;;;;;;5049604;28;20057;-86
2023/01/27 03:02:21;;;;;;;10.55;6.43;;;;;;;;;;5047475;28;20029;-87
2023/01/27 03:04:50;;;;;;;11.57;5.97;;;;;;;;;;5030038;28;20021;-85
2023/01/27 03:07:15;;;;;;;8.85;5.93;;;;;;;;;;5029258;28;20056;-86
2023/01/27 03:09:41;;;;;;;12.20;6.82;;;;;;;;;;5031642;28;20029;-86
2023/01/27 03:12:21;;;;;;;8.43;5.68;;;;;;;;;;5051991;28;20016;-87
2023/01/27 03:20:16;;;;;;;14.52;7.05;;;;;;;;;;5074396;28;20044;-86
2023/01/27 03:22:42;;;;;;;12.27;6.68;;;;;;;;;;5073317;28;20021;-86
2023/01/27 03:25:07;;;;;;;11.82;6.75;;;;;;;;;;5055615;28;20044;-86
2023/01/27 03:27:33;;;;;;;12.82;6.93;;;;;;;;;;5052407;28;20025;-86
2023/01/27 03:29:59;;;;;;;13.75;7.32;;;;;;;;;;5061252;28;20040;-86
2023/01/27 03:32:27;;;;;;;10.95;6.88;;;;;;;;;;5054098;28;20032;-86
2023/01/27 03:34:56;;;;;;;14.70;7.43;;;;;;;;;;5048563;28;20021;-86
2023/01/27 03:48:21;;;;;;;14.70;6.75;;;;;;;;;;5053030;28;20035;-87
2023/01/27 03:50:52;;;;;;;11.50;6.78;;;;;;;;;;5049499;28;20028;-87
2023/01/27 03:53:21;;;;;;;11.43;7.03;;;;;;;;;;5032890;28;20100;-86
2023/01/27 03:55:46;;;;;;;12.57;6.20;;;;;;;;;;5050710;28;20278;-86
2023/01/27 03:58:18;;;;;;;15.15;7.32;;;;;;;;;;5049624;28;20027;-87
2023/01/27 04:00:50;;;;;;;15.95;8.07;;;;;;;;;;5044925;28;20065;-87
2023/01/27 04:08:53;;;;;;;8.38;6.57;;;;;;;;;;5057636;28;20028;-86
2023/01/27 04:14:04;;;;;;;15.23;7.53;;;;;;;;;;5044982;28;20051;-88
2023/01/27 04:16:30;;;;;;;13.20;7.28;;;;;;;;;;5035611;28;20033;-88
2023/01/27 04:18:56;;;;;;;12.05;7.72;;;;;;;;;;5038037;28;20024;-86
2023/01/27 04:21:21;;;;;;;13.82;7.40;;;;;;;;;;5052544;28;20041;-87
2023/01/27 04:23:47;;;;;;;16.73;8.45;;;;;;;;;;5056469;28;20111;-88
2023/01/27 04:26:12;;;;;;;12.88;6.70;;;;;;;;;;5048952;28;20040;-87
2023/01/27 04:28:37;;;;;;;14.18;7.22;;;;;;;;;;5030839;28;20025;-87
2023/01/27 04:31:03;;;;;;;9.82;6.88;;;;;;;;;;5028999;28;20060;-87
2023/01/27 04:33:28;;;;;;;12.63;5.03;;;;;;;;;;5051327;28;20147;-88
2023/01/27 04:35:54;;;;;;;15.90;6.90;;;;;;;;;;5047530;28;20120;-87
2023/01/27 04:38:20;;;;;;;11.07;7.05;;;;;;;;;;5048460;28;20478;-87
2023/01/27 04:40:45;;;;;;;11.57;7.13;;;;;;;;;;5030069;28;20057;-86
2023/01/27 04:43:10;;;;;;;11.93;7.68;;;;;;;;;;5063087;28;20040;-88
2023/01/27 04:45:36;;;;;;;11.38;7.13;;;;;;;;;;5047001;28;20037;-86
2023/01/27 04:48:02;;;;;;;11.75;6.93;;;;;;;;;;5026513;28;20031;-87
2023/01/27 04:50:27;;;;;;;12.90;7.50;;;;;;;;;;5049570;28;20068;-88
2023/01/27 04:52:52;;;;;;;9.18;5.78;;;;;;;;;;5046573;28;20043;-88
2023/01/27 04:55:18;;;;;;;10.23;6.25;;;;;;;;;;5048539;28;20018;-87
2023/01/27 04:57:43;;;;;;;17.95;7.60;;;;;;;;;;5025318;28;20028;-86
2023/01/27 05:00:11;;;;;;;12.15;6.50;;;;;;;;;;5056065;28;20056;-88
2023/01/27 05:02:36;;;;;;;10.13;5.28;;;;;;;;;;5040440;28;20025;-86
2023/01/27 05:05:04;;;;;;;12.82;5.80;;;;;;;;;;5058473;28;20086;-87
2023/01/27 05:07:30;;;;;;;12.45;7.45;;;;;;;;;;5039326;28;20043;-88
2023/01/27 05:09:55;;;;;;;12.25;7.10;;;;;;;;;;5058052;28;20025;-87
2023/01/27 05:12:21;;;;;;;16.27;7.05;;;;;;;;;;5040974;28;20410;-86
2023/01/27 05:14:46;;;;;;;12.45;6.07;;;;;;;;;;5059487;28;20083;-86
2023/01/27 05:17:12;;;;;;;9.77;5.10;;;;;;;;;;5040148;28;20025;-87
2023/01/27 05:19:37;;;;;;;18.15;6.88;;;;;;;;;;5035908;28;20040;-87
2023/01/27 05:22:03;;;;;;;10.18;6.43;;;;;;;;;;5039757;28;20028;-86
2023/01/27 05:24:28;;;;;;;9.60;6.18;;;;;;;;;;5049050;28;20070;-86
2023/01/27 05:26:53;;;;;;;12.48;6.05;;;;;;;;;;5036220;28;20100;-86
2023/01/27 05:29:19;;;;;;;10.07;6.78;;;;;;;;;;5045006;28;20084;-86
2023/01/27 05:31:44;;;;;;;11.95;5.15;;;;;;;;;;5044037;28;20123;-86
2023/01/27 05:34:09;;;;;;;12.65;7.05;;;;;;;;;;5030878;28;20048;-86
2023/01/27 05:36:35;;;;;;;11.38;6.22;;;;;;;;;;5051280;28;20024;-86
2023/01/27 05:39:00;;;;;;;12.52;6.22;;;;;;;;;;5063550;28;20072;-87
2023/01/27 05:41:28;;;;;;;20.02;7.90;;;;;;;;;;5047080;28;20028;-87
2023/01/27 05:43:54;;;;;;;12.70;6.70;;;;;;;;;;5045412;28;20039;-88
2023/01/27 05:46:25;;;;;;;13.73;6.72;;;;;;;;;;5039337;28;20029;-87
2023/01/27 05:48:53;;;;;;;12.48;6.50;;;;;;;;;;5050136;28;20067;-87
2023/01/27 05:51:20;;;;;;;15.40;6.13;;;;;;;;;;5038434;28;20029;-86
2023/01/27 05:53:46;;;;;;;14.20;6.78;;;;;;;;;;5057732;28;20025;-86
2023/01/27 05:56:13;;;;;;;10.77;5.78;;;;;;;;;;5045962;28;20421;-86
2023/01/27 05:58:39;;;;;;;7.63;4.35;;;;;;;;;;5048001;28;20091;-85
2023/01/27 06:01:13;;;;;;;10.65;5.93;;;;;;;;;;5046050;28;20029;-87
2023/01/27 06:03:40;;;;;;;12.10;5.28;;;;;;;;;;5046499;28;20058;-87
2023/01/27 06:06:07;;;;;;;14.55;7.00;;;;;;;;;;5056658;28;21385;-88
2023/01/27 06:08:33;;;;;;;9.98;5.20;;;;;;;;;;5049700;28;20087;-86
2023/01/27 06:10:59;;;;;;;11.73;6.53;;;;;;;;;;5031695;28;20482;-86
2023/01/27 06:13:24;;;;;;;10.15;6.15;;;;;;;;;;5049534;28;20078;-86
2023/01/27 06:15:50;;;;;;;11.95;6.05;;;;;;;;;;5043315;28;21442;-87
2023/01/27 06:18:17;;;;;;;14.38;7.78;;;;;;;;;;5040120;28;20093;-87
2023/01/27 06:20:44;;;;;;;8.70;5.75;;;;;;;;;;5046858;28;20032;-88
2023/01/27 06:23:10;;;;;;;10.20;5.68;;;;;;;;;;5046396;28;20032;-87
2023/01/27 06:25:41;;;;;;;12.43;5.47;;;;;;;;;;5045921;28;20239;-86
2023/01/27 06:28:08;;;;;;;10.80;6.05;;;;;;;;;;5029154;28;20044;-87
2023/01/27 06:30:35;;;;;;;10.32;6.63;;;;;;;;;;5045515;28;20032;-87
2023/01/27 06:33:01;;;;;;;8.27;5.43;;;;;;;;;;5033928;28;20113;-87
2023/01/27 06:35:27;;;;;;;10.13;6.22;;;;;;;;;;5038067;28;20074;-86
2023/01/27 06:37:52;;;;;;;11.23;6.63;;;;;;;;;;5041323;28;20018;-88
2023/01/27 06:40:18;;;;;;;11.73;7.63;;;;;;;;;;5033874;28;20029;-87
2023/01/27 06:42:43;;;;;;;10.00;5.43;;;;;;;;;;5045916;28;20163;-87
2023/01/27 06:45:12;;;;;;;11.45;5.28;;;;;;;;;;5050576;28;20096;-86
2023/01/27 06:47:38;;;;;;;8.80;5.47;;;;;;;;;;5045372;28;20025;-87
2023/01/27 06:50:05;;;;;;;10.65;5.65;;;;;;;;;;5030077;28;20028;-86
2023/01/27 06:52:30;;;;;;;8.60;4.82;;;;;;;;;;5052152;28;20044;-85
2023/01/27 06:54:55;;;;;;;12.77;4.75;;;;;;;;;;5066611;28;20013;-86
2023/01/27 06:57:21;;;;;;;12.63;6.07;;;;;;;;;;5051074;28;20040;-86
2023/01/27 06:59:46;;;;;;;11.55;6.82;;;;;;;;;;5068023;28;20055;-86
2023/01/27 07:02:12;;;;;;;13.77;6.35;;;;;;;;;;5085788;28;20046;-85
2023/01/27 07:04:37;;;;;;;11.45;5.70;;;;;;;;;;5065350;28;20005;-85
2023/01/27 07:07:02;;;;;;;14.65;7.43;;;;;;;;;;5062291;28;20028;-86
2023/01/27 07:09:28;;;;;;;11.70;6.93;;;;;;;;;;5063597;28;20044;-85
2023/01/27 07:11:53;;;;;;;13.25;7.05;;;;;;;;;;5058031;28;20033;-86
2023/01/27 07:14:19;;;;;;;8.13;5.45;;;;;;;;;;5069500;28;20032;-87
2023/01/27 07:16:44;;;;;;;9.00;5.75;;;;;;;;;;5049467;28;20074;-86
2023/01/27 07:19:11;;;;;;;7.20;4.57;;;;;;;;;;5070204;28;20380;-86
2023/01/27 07:21:36;;;;;;;8.85;5.65;;;;;;;;;;5061889;28;20463;-87
2023/01/27 07:24:02;;;;;;;13.75;6.43;;;;;;;;;;5056293;28;20046;-87
2023/01/27 07:26:27;;;;;;;10.88;6.70;;;;;;;;;;5049102;28;20028;-87
2023/01/27 07:28:54;;;;;;;12.40;6.20;;;;;;;;;;5039724;28;20031;-87
2023/01/27 07:31:19;;;;;;;11.82;6.38;;;;;;;;;;5055583;28;20025;-87
2023/01/27 07:33:45;;;;;;;11.85;5.60;;;;;;;;;;5037524;28;20082;-86
2023/01/27 07:36:10;;;;;;;8.57;5.28;;;;;;;;;;5069195;28;20061;-87
2023/01/27 07:38:35;;;;;;;9.38;5.03;;;;;;;;;;5037393;28;20031;-86
2023/01/27 07:41:04;;;;;;;8.63;5.13;;;;;;;;;;5034403;28;20486;-86
2023/01/27 07:43:29;;;;;;;9.38;4.95;;;;;;;;;;5051714;28;20029;-87
2023/01/27 07:45:56;;;;;;;7.25;4.18;;;;;;;;;;5054551;28;20044;-86
2023/01/27 07:48:22;;;;;;;8.00;4.80;;;;;;;;;;5067454;28;20021;-87
2023/01/27 07:50:47;;;;;;;8.80;4.85;;;;;;;;;;5060919;28;20041;-86
2023/01/27 07:53:12;;;;;;;12.63;5.57;;;;;;;;;;5071727;28;20036;-86
2023/01/27 07:55:38;;;;;;;13.85;5.72;;;;;;;;;;5071190;28;20035;-87
2023/01/27 07:58:04;;;;;;;11.35;6.47;;;;;;;;;;5064948;28;20026;-87
2023/01/27 08:00:30;;;;;;;11.40;5.40;;;;;;;;;;5034845;28;20028;-86
2023/01/27 08:02:57;;;;;;;8.65;5.38;;;;;;;;;;5052667;28;20457;-85
2023/01/27 08:05:23;;;;;;;9.35;5.55;;;;;;;;;;5071271;28;20529;-85
2023/01/27 08:07:49;;;;;;;13.68;5.25;;;;;;;;;;5052615;28;20025;-86
2023/01/27 08:10:16;;;;;;;9.15;5.18;;;;;;;;;;5057633;28;20032;-85
2023/01/27 08:12:42;;;;;;;8.95;5.82;;;;;;;;;;5061060;28;20029;-86
2023/01/27 08:15:08;;;;;;;9.27;5.53;;;;;;;;;;5047687;28;20078;-86
2023/01/27 08:17:33;;;;;;;14.15;4.20;;;;;;;;;;5040878;28;20033;-86
2023/01/27 08:19:58;;;;;;;9.43;5.60;;;;;;;;;;5039682;28;20029;-85
2023/01/27 08:22:24;;;;;;;10.20;4.80;;;;;;;;;;5061359;28;20116;-85
2023/01/27 08:24:49;;;;;;;7.18;4.18;;;;;;;;;;5062077;28;20582;-85
2023/01/27 08:27:16;;;;;;;6.97;4.07;;;;;;;;;;5051787;28;20013;-84
2023/01/27 08:29:41;;;;;;;10.65;5.00;;;;;;;;;;5043447;28;20037;-83
2023/01/27 08:32:07;;;;;;;12.70;4.90;;;;;;;;;;5066732;28;20368;-87
2023/01/27 08:34:33;;;;;;;9.80;5.20;;;;;;;;;;5048419;28;20028;-86
2023/01/27 08:36:58;;;;;;;8.80;4.90;;;;;;;;;;5064063;28;20064;-86
2023/01/27 08:39:24;;;;;;;8.38;5.43;;;;;;;;;;5054629;28;20021;-86
2023/01/27 08:41:49;;;;;;;6.90;3.95;;;;;;;;;;5060998;28;20712;-86
2023/01/27 08:44:15;;;;;;;7.57;4.85;;;;;;;;;;5053433;28;20025;-86
2023/01/27 08:46:40;;;;;;;8.10;4.50;;;;;;;;;;5040731;28;20033;-84
2023/01/27 08:49:05;;;;;;;10.88;5.57;;;;;;;;;;5053819;28;20025;-87
2023/01/27 08:51:31;;;;;;;10.82;5.70;;;;;;;;;;5054645;28;20032;-85
2023/01/27 08:53:56;;;;;;;10.48;5.28;;;;;;;;;;5032538;28;20021;-85
2023/01/27 08:56:22;;;;;;;11.10;5.15;;;;;;;;;;5053880;28;20127;-85
2023/01/27 08:58:47;;;;;;;7.90;4.10;;;;;;;;;;5022134;28;21399;-88
2023/01/27 09:01:14;;;;;;;11.90;5.07;;;;;;;;;;5042342;28;20033;-84
2023/01/27 09:03:39;;;;;;;13.52;6.28;;;;;;;;;;5051732;28;20031;-85
2023/01/27 09:06:08;;;;;;;10.20;5.50;;;;;;;;;;5058757;28;20049;-85
2023/01/27 09:08:33;;;;;;;5.60;4.05;;;;;;;;;;5034835;28;20052;-88
2023/01/27 09:10:58;;;;;;;10.40;5.43;;;;;;;;;;5049336;28;20040;-84
2023/01/27 09:13:24;;;;;;;12.25;5.68;;;;;;;;;;5061639;28;20021;-86
2023/01/27 09:15:53;;;;;;;7.13;5.15;;;;;;;;;;5051967;28;20028;-86
2023/01/27 09:18:19;;;;;;;8.05;4.55;;;;;;;;;;5031944;28;20057;-86
2023/01/27 09:23:49;;;;;;;13.00;6.05;;;;;;;;;;5069118;28;20075;-86
2023/01/27 09:26:14;;;;;;;11.02;5.80;;;;;;;;;;5057658;28;20142;-87
2023/01/27 09:28:40;;;;;;;9.98;6.50;;;;;;;;;;5017779;28;20522;-86
2023/01/27 09:31:08;;;;;;;13.18;5.38;;;;;;;;;;5042752;28;20451;-87
2023/01/27 09:33:34;;;;;;;11.43;5.25;;;;;;;;;;5054265;28;20029;-86
2023/01/27 09:36:20;;;;;;;10.20;5.15;;;;;;;;;;5061601;28;20039;-86
2023/01/27 09:38:52;;;;;;;11.15;6.72;;;;;;;;;;5061073;28;20491;-85
2023/01/27 09:41:20;;;;;;;8.35;5.72;;;;;;;;;;5046940;28;20017;-86
2023/01/27 09:43:51;;;;;;;10.88;5.07;;;;;;;;;;5040682;28;20507;-86
2023/01/27 09:46:51;;;;;;;11.48;5.80;;;;;;;;;;5058876;28;20037;-86
2023/01/27 09:49:34;;;;;;;11.18;5.70;;;;;;;;;;5038726;28;20025;-85
2023/01/27 09:52:28;;;;;;;7.40;4.15;;;;;;;;;;5038383;28;20593;-85
2023/01/27 10:05:29;;;;;;;14.63;5.45;;;;;;;;;;5050917;28;20068;-87
2023/01/27 10:08:25;;;;;;;7.97;4.40;;;;;;;;;;5076415;28;20070;-86
2023/01/27 10:11:21;;;;;;;7.55;3.80;;;;;;;;;;5059916;28;20024;-86
2023/01/27 10:17:11;;;;;;;10.05;4.68;;;;;;;;;;5051118;28;20067;-88
2023/01/27 10:19:58;;;;;;;11.13;5.18;;;;;;;;;;5056569;28;20029;-86
2023/01/27 10:23:02;;;;;;;14.20;5.35;;;;;;;;;;5047506;28;20033;-88
2023/01/27 10:25:36;;;;;;;10.63;4.90;;;;;;;;;;5021616;28;20025;-82
2023/01/27 10:28:11;;;;;;;8.07;3.22;;;;;;;;;;5036698;28;20107;-84
2023/01/27 10:30:41;;;;;;;6.40;3.80;;;;;;;;;;5040246;28;20407;-84
2023/01/27 10:33:44;;;;;;;9.60;4.30;;;;;;;;;;5037922;28;20020;-84
2023/01/27 10:36:23;;;;;;;7.22;4.75;;;;;;;;;;5036304;28;20395;-82
2023/01/27 10:38:56;;;;;;;6.90;4.97;;;;;;;;;;5055671;28;20028;-84
2023/01/27 10:41:49;;;;;;;12.23;4.97;;;;;;;;;;5059634;28;20031;-82
2023/01/27 10:44:21;;;;;;;7.53;4.40;;;;;;;;;;5031850;28;20025;-83
2023/01/27 10:47:11;;;;;;;9.77;4.53;;;;;;;;;;5055426;28;20399;-84
2023/01/27 10:50:01;;;;;;;12.10;4.90;;;;;;;;;;5039105;28;20033;-85
2023/01/27 10:53:07;;;;;;;9.07;4.50;;;;;;;;;;5057157;28;20055;-86
2023/01/27 10:55:42;;;;;;;7.70;3.90;;;;;;;;;;4975774;28;20034;-86
2023/01/27 10:58:15;;;;;;;7.47;4.63;;;;;;;;;;5029219;28;20040;-87
2023/01/27 11:00:50;;;;;;;7.53;4.22;;;;;;;;;;5040091;28;20059;-86
2023/01/27 11:03:29;;;;;;;5.13;3.42;;;;;;;;;;5050577;28;20104;-87
2023/01/27 11:06:01;;;;;;;9.27;4.47;;;;;;;;;;5049827;28;20024;-88
2023/01/27 11:08:32;;;;;;;9.10;4.65;;;;;;;;;;5075602;28;20017;-86
2023/01/27 11:13:48;;;;;;;6.60;4.82;;;;;;;;;;5073936;28;20036;-86
2023/01/27 11:16:16;;;;;;;8.55;4.25;;;;;;;;;;5059689;28;20013;-88
2023/01/27 11:18:44;;;;;;;8.73;4.47;;;;;;;;;;5050917;28;20073;-88
2023/01/27 11:21:17;;;;;;;6.10;3.17;;;;;;;;;;5047579;28;20025;-87
2023/01/27 11:23:47;;;;;;;8.90;4.53;;;;;;;;;;5054833;28;20391;-87
2023/01/27 11:26:39;;;;;;;6.15;3.50;;;;;;;;;;5062612;28;20108;-87
2023/01/27 11:29:26;;;;;;;7.30;4.30;;;;;;;;;;5067996;28;20013;-88
2023/01/27 11:32:00;;;;;;;8.30;3.70;;;;;;;;;;5059608;28;20021;-87
2023/01/27 11:34:53;;;;;;;8.68;4.28;;;;;;;;;;5065470;28;20020;-89
2023/01/27 11:37:41;;;;;;;7.35;3.90;;;;;;;;;;5067837;28;20020;-87
2023/01/27 11:40:30;;;;;;;6.35;3.85;;;;;;;;;;5057833;28;20032;-86
2023/01/27 11:42:59;;;;;;;9.48;4.65;;;;;;;;;;5042849;28;20043;-86
2023/01/27 11:45:26;;;;;;;7.05;3.60;;;;;;;;;;5051221;28;20025;-87
2023/01/27 11:47:55;;;;;;;12.00;4.72;;;;;;;;;;5057719;28;20505;-87
2023/01/27 11:50:23;;;;;;;10.38;5.53;;;;;;;;;;5056987;28;20029;-86
2023/01/27 11:53:04;;;;;;;9.18;4.72;;;;;;;;;;5058482;28;20032;-86
2023/01/27 11:55:37;;;;;;;6.55;3.55;;;;;;;;;;5061001;28;20027;-86
2023/01/27 11:58:25;;;;;;;11.68;5.10;;;;;;;;;;5042541;28;20479;-85
2023/01/27 12:01:16;;;;;;;10.38;4.90;;;;;;;;;;5048871;28;20041;-87
2023/01/27 12:04:08;;;;;;;11.40;4.50;;;;;;;;;;5054848;28;20032;-86
2023/01/27 12:06:58;;;;;;;14.82;5.53;;;;;;;;;;5054021;28;20021;-86
2023/01/27 12:09:37;;;;;;;9.43;5.03;;;;;;;;;;5034950;28;20406;-88
2023/01/27 12:12:21;;;;;;;7.68;4.55;;;;;;;;;;5048452;28;20024;-85
2023/01/27 12:14:51;;;;;;;9.75;4.95;;;;;;;;;;5031040;28;20033;-86
2023/01/27 12:17:34;;;;;;;10.95;5.55;;;;;;;;;;5023147;28;20030;-88
2023/01/27 12:20:25;;;;;;;8.48;4.95;;;;;;;;;;5026487;28;20055;-88
2023/01/27 12:22:58;;;;;;;10.60;5.30;;;;;;;;;;5048141;28;20998;-85
2023/01/27 12:25:31;;;;;;;14.70;5.45;;;;;;;;;;5044727;28;20507;-87
2023/01/27 12:28:00;;;;;;;7.40;5.32;;;;;;;;;;5050037;28;20032;-87
2023/01/27 12:30:30;;;;;;;9.30;5.03;;;;;;;;;;5032452;28;20716;-86
2023/01/27 12:32:57;;;;;;;9.75;5.85;;;;;;;;;;5052337;28;20044;-85
2023/01/27 12:35:29;;;;;;;10.98;5.20;;;;;;;;;;5063475;28;20382;-86
2023/01/27 12:38:06;;;;;;;7.72;5.40;;;;;;;;;;5024726;28;20029;-89
2023/01/27 12:40:32;;;;;;;8.57;5.13;;;;;;;;;;5047971;28;20041;-86
2023/01/27 12:43:00;;;;;;;12.93;5.10;;;;;;;;;;5032785;28;20035;-86
2023/01/27 12:45:30;;;;;;;10.38;5.50;;;;;;;;;;5052283;28;20021;-86
2023/01/27 12:48:00;;;;;;;8.35;4.35;;;;;;;;;;5047172;28;20414;-86
2023/01/27 12:50:29;;;;;;;11.70;5.75;;;;;;;;;;5032669;28;20922;-85
2023/01/27 12:53:17;;;;;;;10.65;5.88;;;;;;;;;;5048546;28;20047;-86
2023/01/27 12:56:10;;;;;;;9.15;5.07;;;;;;;;;;5061041;28;20036;-87
2023/01/27 12:58:52;;;;;;;13.68;4.80;;;;;;;;;;5042789;28;20082;-87
2023/01/27 13:01:36;;;;;;;7.85;4.80;;;;;;;;;;5049505;28;20032;-89
2023/01/27 13:04:24;;;;;;;6.35;4.07;;;;;;;;;;5046604;28;20087;-87
2023/01/27 13:06:54;;;;;;;13.93;6.85;;;;;;;;;;5031670;28;20581;-88
2023/01/27 13:09:42;;;;;;;10.25;5.15;;;;;;;;;;5053842;28;20051;-87
2023/01/27 13:12:18;;;;;;;10.98;5.32;;;;;;;;;;5060618;28;20033;-87
2023/01/27 13:14:43;;;;;;;7.20;4.07;;;;;;;;;;5039681;28;20055;-88
2023/01/27 13:17:44;;;;;;;12.40;6.18;;;;;;;;;;5063623;28;20020;-87
2023/01/27 13:20:19;;;;;;;9.55;4.60;;;;;;;;;;5057250;28;20029;-86
2023/01/27 13:22:47;;;;;;;9.20;4.95;;;;;;;;;;5043642;28;20395;-88
2023/01/27 13:25:20;;;;;;;12.05;5.78;;;;;;;;;;5047336;28;20039;-87
2023/01/27 13:27:49;;;;;;;3.95;2.83;;;;;;;;;;5039925;28;20025;-87
2023/01/27 13:30:23;;;;;;;10.82;5.63;;;;;;;;;;5036757;28;20025;-86
2023/01/27 13:32:51;;;;;;;9.07;4.35;;;;;;;;;;5038958;28;20119;-86
2023/01/27 13:35:20;;;;;;;5.30;3.85;;;;;;;;;;5049097;28;20024;-89
2023/01/27 13:38:09;;;;;;;7.22;4.18;;;;;;;;;;5049738;28;20455;-88
2023/01/27 13:40:44;;;;;;;5.78;4.10;;;;;;;;;;5039023;28;20036;-88
2023/01/27 13:43:29;;;;;;;9.07;5.15;;;;;;;;;;5039624;28;20032;-86
2023/01/27 13:46:10;;;;;;;10.18;4.88;;;;;;;;;;5035247;28;20028;-88
2023/01/27 13:48:41;;;;;;;8.02;4.95;;;;;;;;;;5053973;28;20085;-87
2023/01/27 13:51:15;;;;;;;6.32;3.70;;;;;;;;;;5029433;28;20495;-86
2023/01/27 13:53:42;;;;;;;5.55;4.28;;;;;;;;;;5036820;28;20048;-86
2023/01/27 13:56:22;;;;;;;9.70;5.13;;;;;;;;;;5037199;28;20654;-87
2023/01/27 13:59:25;;;;;;;9.55;4.30;;;;;;;;;;5045179;28;20160;-87
2023/01/27 14:02:18;;;;;;;4.13;2.45;;;;;;;;;;5053136;28;20037;-87
2023/01/27 14:04:59;;;;;;;2.95;2.65;;;;;;;;;;5049323;28;20033;-86
2023/01/27 14:07:28;;;;;;;10.25;5.05;;;;;;;;;;5041262;28;20569;-87
2023/01/27 14:10:18;;;;;;;5.57;4.75;;;;;;;;;;5037111;28;20028;-87
2023/01/27 14:13:07;;;;;;;6.13;2.78;;;;;;;;;;5046628;28;20033;-86
2023/01/27 14:16:00;;;;;;;3.70;2.65;;;;;;;;;;5048353;28;20033;-87
2023/01/27 14:18:34;;;;;;;8.18;4.28;;;;;;;;;;5041146;28;20032;-87
2023/01/27 14:21:15;;;;;;;7.15;3.97;;;;;;;;;;5034570;28;20063;-87
2023/01/27 14:23:53;;;;;;;4.93;3.30;;;;;;;;;;5038263;28;20526;-86
2023/01/27 14:26:43;;;;;;;8.57;4.70;;;;;;;;;;5037606;28;20056;-90
2023/01/27 14:29:25;;;;;;;6.25;4.10;;;;;;;;;;5046826;28;20024;-88
2023/01/27 14:32:14;;;;;;;8.38;4.30;;;;;;;;;;5030087;28;20048;-86
2023/01/27 14:34:51;;;;;;;8.68;4.22;;;;;;;;;;5050304;28;20029;-88
2023/01/27 14:37:31;;;;;;;6.32;4.22;;;;;;;;;;5046206;28;20549;-85
2023/01/27 14:40:14;;;;;;;7.47;4.53;;;;;;;;;;5049702;28;20036;-86
2023/01/27 14:42:58;;;;;;;7.90;5.35;;;;;;;;;;5050063;28;20087;-85
2023/01/27 14:45:36;;;;;;;8.57;4.90;;;;;;;;;;5048403;28;20025;-87
2023/01/27 14:48:23;;;;;;;9.82;4.20;;;;;;;;;;5051984;28;20059;-87
2023/01/27 14:51:15;;;;;;;6.70;4.22;;;;;;;;;;5056939;28;20051;-85
2023/01/27 14:53:52;;;;;;;10.52;5.63;;;;;;;;;;5054356;28;20029;-86
2023/01/27 14:56:36;;;;;;;4.07;3.42;;;;;;;;;;5036575;28;20059;-85
2023/01/27 14:59:13;;;;;;;10.63;4.53;;;;;;;;;;5029768;28;21366;-86
2023/01/27 15:02:11;;;;;;;8.52;4.30;;;;;;;;;;5035931;28;20028;-85
2023/01/27 15:04:47;;;;;;;10.50;5.40;;;;;;;;;;5033281;28;20032;-86
2023/01/27 15:07:23;;;;;;;13.30;5.78;;;;;;;;;;5054930;28;20082;-87
2023/01/27 15:10:20;;;;;;;6.85;4.13;;;;;;;;;;5034415;28;20103;-86
2023/01/27 15:13:01;;;;;;;8.20;4.95;;;;;;;;;;5037467;28;20083;-86
2023/01/27 15:15:55;;;;;;;7.45;4.90;;;;;;;;;;5056290;28;20064;-86
2023/01/27 15:18:50;;;;;;;6.65;4.25;;;;;;;;;;5043538;28;20018;-87
2023/01/27 15:21:45;;;;;;;6.15;4.18;;;;;;;;;;5053816;28;20035;-89
2023/01/27 15:24:46;;;;;;;6.15;4.00;;;;;;;;;;5040617;28;20020;-87
2023/01/27 15:27:11;;;;;;;6.97;4.28;;;;;;;;;;5028548;28;22426;-88
2023/01/27 15:29:37;;;;;;;7.43;4.28;;;;;;;;;;5046533;28;20064;-87
2023/01/27 15:32:25;;;;;;;8.18;4.50;;;;;;;;;;5033325;28;20048;-87
2023/01/27 15:35:12;;;;;;;8.48;4.63;;;;;;;;;;5042163;28;20036;-90
2023/01/27 15:37:53;;;;;;;13.18;5.10;;;;;;;;;;5026717;28;20506;-88
2023/01/27 15:40:19;;;;;;;7.03;4.18;;;;;;;;;;5051723;28;20012;-89
2023/01/27 15:42:54;;;;;;;6.45;3.47;;;;;;;;;;5031351;28;20028;-88
2023/01/27 15:45:44;;;;;;;6.72;4.25;;;;;;;;;;5043851;28;20091;-86
2023/01/27 15:48:18;;;;;;;8.45;4.18;;;;;;;;;;5046674;28;20488;-87
2023/01/27 15:50:52;;;;;;;8.13;5.05;;;;;;;;;;5038884;28;20021;-87
2023/01/27 15:53:29;;;;;;;7.00;3.67;;;;;;;;;;5042218;28;20021;-86
2023/01/27 15:55:58;;;;;;;7.20;4.43;;;;;;;;;;5031680;28;20040;-86